createdAt,value
2024-01-15T00:01:05.858Z,1.84
2024-01-15T00:06:29.931Z,1.82
2024-01-15T00:11:32.993Z,1.87
2024-01-15T00:16:36.154Z,1.88
2024-01-15T00:21:39.220Z,1.87
2024-01-15T00:26:42.255Z,1.82
2024-01-15T00:31:45.295Z,1.81
2024-01-15T00:36:48.558Z,1.84
2024-01-15T00:41:51.617Z,1.85
2024-01-15T00:46:54.604Z,1.83
2024-01-15T00:51:57.584Z,1.74
2024-01-15T00:57:00.526Z,1.70
2024-01-15T01:02:03.814Z,1.71
2024-01-15T01:07:06.849Z,1.73
2024-01-15T01:12:09.858Z,1.71
2024-01-15T01:17:12.875Z,1.67
2024-01-15T01:22:15.877Z,1.66
2024-01-15T01:27:18.844Z,1.66
2024-01-15T01:32:21.854Z,1.70
2024-01-15T01:37:24.838Z,1.71
2024-01-15T01:42:27.826Z,1.70
2024-01-15T01:47:31.287Z,1.67
2024-01-15T01:52:34.720Z,1.60
2024-01-15T01:57:38.046Z,1.61
2024-01-15T02:02:41.117Z,1.64
2024-01-15T02:07:45.288Z,1.62
2024-01-15T02:12:49.959Z,1.58
2024-01-15T02:18:08.768Z,1.58
2024-01-15T02:23:17.122Z,1.61
2024-01-15T02:28:20.291Z,1.60
2024-01-15T02:33:23.749Z,1.56
2024-01-15T02:38:26.917Z,1.53
2024-01-15T02:43:29.959Z,1.56
2024-01-15T02:48:34.128Z,1.56
2024-01-15T02:53:38.537Z,1.53
2024-01-15T02:58:41.513Z,1.50
2024-01-15T03:03:44.557Z,1.50
2024-01-15T03:08:47.565Z,1.54
2024-01-15T03:13:50.562Z,1.57
2024-01-15T03:18:53.642Z,1.53
2024-01-15T03:23:56.688Z,1.50
2024-01-15T03:28:59.654Z,1.48
2024-01-15T03:34:02.922Z,1.52
2024-01-15T03:39:06.015Z,1.54
2024-01-15T03:44:09.158Z,1.48
2024-01-15T03:49:12.289Z,1.45
2024-01-15T03:54:17.153Z,1.48
2024-01-15T03:59:21.365Z,1.50
2024-01-15T04:04:24.408Z,1.51
2024-01-15T04:09:27.438Z,1.48
2024-01-15T04:14:30.397Z,1.47
2024-01-15T04:19:33.441Z,1.52
2024-01-15T04:24:36.480Z,1.56
2024-01-15T04:29:41.666Z,1.54
2024-01-15T04:34:45.428Z,1.51
2024-01-15T04:39:48.509Z,1.53
2024-01-15T04:44:51.582Z,1.54
2024-01-15T04:49:54.626Z,1.51
2024-01-15T04:54:57.616Z,1.49
2024-01-15T05:00:00.656Z,1.53
2024-01-15T05:05:03.914Z,1.52
2024-01-15T05:10:08.949Z,1.44
2024-01-15T05:15:12.561Z,1.47
2024-01-15T05:20:15.890Z,1.49
2024-01-15T05:25:18.936Z,1.44
2024-01-15T05:30:21.928Z,1.40
2024-01-15T05:35:24.930Z,1.42
2024-01-15T05:40:27.924Z,1.44
2024-01-15T05:45:32.110Z,1.43
2024-01-15T05:50:35.129Z,1.46
2024-01-15T05:55:39.470Z,1.52
2024-01-15T06:00:42.631Z,1.54
2024-01-15T06:05:45.873Z,1.53
2024-01-15T06:10:48.939Z,1.50
2024-01-15T06:15:52.035Z,1.54
2024-01-15T06:20:55.286Z,1.57
2024-01-15T06:25:58.235Z,1.56
2024-01-15T06:31:01.345Z,1.55
2024-01-15T06:36:05.084Z,1.55
2024-01-15T06:41:08.077Z,1.60
2024-01-15T06:46:11.120Z,1.63
2024-01-15T06:51:14.551Z,1.61
2024-01-15T06:56:17.494Z,1.58
2024-01-15T07:01:20.643Z,1.62
2024-01-15T07:06:23.699Z,1.61
2024-01-15T07:11:26.748Z,1.53
2024-01-15T07:16:36.906Z,1.50
2024-01-15T07:21:41.403Z,1.54
2024-01-15T07:26:45.845Z,1.58
2024-01-15T07:31:51.539Z,1.55
2024-01-15T07:36:54.842Z,1.59
2024-01-15T07:41:58.163Z,1.63
2024-01-15T07:47:01.124Z,1.61
2024-01-15T07:52:05.989Z,1.62
2024-01-15T07:57:09.057Z,1.70
2024-01-15T08:02:12.452Z,1.79
2024-01-15T08:07:15.585Z,1.84
2024-01-15T08:12:18.668Z,1.85
2024-01-15T08:17:21.754Z,1.89
2024-01-15T08:22:24.862Z,1.96
2024-01-15T08:27:27.904Z,1.95
2024-01-15T08:32:31.063Z,1.95
2024-01-15T08:37:34.034Z,2.12
2024-01-15T08:42:37.130Z,2.25
2024-01-15T08:47:40.110Z,2.27
2024-01-15T08:52:43.091Z,2.21
2024-01-15T08:57:46.110Z,2.28
2024-01-15T09:02:49.086Z,2.33
2024-01-15T09:07:53.451Z,2.31
2024-01-15T09:12:56.529Z,2.20
2024-01-15T09:18:00.280Z,2.09
2024-01-15T09:23:03.947Z,2.12
2024-01-15T09:28:07.147Z,2.16
2024-01-15T09:33:10.946Z,2.21
2024-01-15T09:38:14.031Z,2.23
2024-01-15T09:43:18.263Z,2.28
2024-01-15T09:48:21.624Z,2.34
2024-01-15T09:53:26.448Z,2.36
2024-01-15T09:58:31.062Z,2.28
2024-01-15T10:03:34.390Z,2.20
2024-01-15T10:08:38.577Z,2.25
2024-01-15T10:13:42.116Z,2.27
2024-01-15T10:18:46.895Z,2.28
2024-01-15T10:23:50.750Z,2.47
2024-01-15T10:28:53.844Z,2.64
2024-01-15T10:34:13.631Z,2.68
2024-01-15T10:39:17.179Z,2.71
2024-01-15T10:44:20.796Z,2.82
2024-01-15T10:49:31.457Z,2.87
2024-01-15T10:54:38.695Z,2.83
2024-01-15T10:59:41.753Z,2.83
2024-01-15T11:04:44.807Z,2.82
2024-01-15T11:09:47.941Z,2.94
2024-01-15T11:14:51.246Z,3.08
2024-01-15T11:19:54.330Z,3.22
2024-01-15T11:25:15.809Z,3.28
2024-01-15T11:30:23.144Z,3.32
2024-01-15T11:35:52.140Z,3.24
2024-01-15T11:40:55.131Z,3.10
2024-01-15T11:45:59.318Z,2.93
2024-01-15T11:51:03.361Z,2.90
2024-01-15T11:56:15.945Z,2.86
2024-01-15T12:01:20.255Z,2.82
2024-01-15T12:06:24.656Z,2.87
2024-01-15T12:11:29.954Z,2.90
2024-01-15T12:16:33.052Z,2.85
2024-01-15T12:21:35.924Z,2.83
2024-01-15T12:26:38.826Z,2.82
2024-01-15T12:31:41.834Z,2.75
2024-01-15T12:36:47.928Z,2.74
2024-01-15T12:41:50.839Z,2.81
2024-01-15T12:46:53.759Z,2.91
2024-01-15T12:51:59.416Z,2.94
2024-01-15T12:57:02.460Z,2.90
2024-01-15T13:02:05.900Z,2.87
2024-01-15T13:07:09.490Z,2.78
2024-01-15T13:12:12.922Z,2.69
2024-01-15T13:17:15.934Z,2.65
2024-01-15T13:22:18.922Z,2.58
2024-01-15T13:27:22.490Z,2.62
2024-01-15T13:32:29.649Z,2.61
2024-01-15T13:37:33.177Z,2.52
2024-01-15T13:42:39.472Z,2.39
2024-01-15T13:47:46.258Z,2.28
2024-01-15T13:52:49.556Z,2.19
2024-01-15T13:57:52.742Z,2.13
2024-01-15T14:02:55.764Z,2.09
2024-01-15T14:07:59.992Z,2.02
2024-01-15T14:13:03.225Z,1.97
2024-01-15T14:18:06.464Z,1.90
2024-01-15T14:23:09.665Z,1.85
2024-01-15T14:28:12.776Z,1.86
2024-01-15T14:33:15.895Z,1.87
2024-01-15T14:38:18.974Z,1.84
2024-01-15T14:43:22.453Z,1.78
2024-01-15T14:48:26.365Z,1.73
2024-01-15T14:53:29.549Z,1.64
2024-01-15T14:58:32.922Z,1.55
2024-01-15T15:03:36.020Z,1.49
2024-01-15T15:08:39.116Z,1.53
2024-01-15T15:13:45.629Z,1.53
2024-01-15T15:18:49.548Z,1.51
2024-01-15T15:23:52.584Z,1.50
2024-01-15T15:28:55.557Z,1.50
2024-01-15T15:34:01.944Z,1.46
2024-01-15T15:39:05.279Z,1.47
2024-01-15T15:44:08.388Z,1.54
2024-01-15T15:49:11.743Z,1.53
2024-01-15T15:54:15.041Z,1.50
2024-01-15T15:59:19.870Z,1.48
2024-01-15T16:04:26.044Z,1.47
2024-01-15T16:09:29.173Z,1.43
2024-01-15T16:14:32.592Z,1.36
2024-01-15T16:23:26.141Z,1.38
2024-01-15T16:25:01.805Z,1.38
2024-01-15T16:30:16.745Z,1.35
2024-01-15T16:35:24.198Z,1.29
2024-01-15T16:40:29.001Z,1.23
2024-01-15T16:45:34.245Z,1.15
2024-01-15T16:50:37.477Z,1.09
2024-01-15T16:55:40.710Z,1.06
2024-01-15T17:00:43.711Z,1.07
2024-01-15T17:05:46.797Z,1.08
2024-01-15T17:10:49.829Z,1.05
2024-01-15T17:15:52.939Z,1.01
2024-01-15T17:20:56.729Z,0.99
2024-01-15T17:26:00.197Z,0.96
2024-01-15T17:31:03.281Z,0.98
2024-01-15T17:36:07.480Z,1.07
2024-01-15T17:41:10.662Z,1.12
2024-01-15T17:46:15.704Z,1.10
2024-01-15T17:51:19.850Z,1.02
2024-01-15T17:56:22.950Z,1.00
2024-01-15T18:01:25.978Z,1.00
2024-01-15T18:06:29.094Z,1.06
2024-01-15T18:11:33.140Z,1.09
2024-01-15T18:16:37.403Z,1.05
2024-01-15T18:21:40.445Z,0.98
2024-01-15T18:26:43.615Z,0.94
2024-01-15T18:31:46.766Z,0.91
2024-01-15T18:36:49.890Z,0.93
2024-01-15T18:41:53.021Z,0.90
2024-01-15T18:46:56.139Z,0.80
2024-01-15T18:51:59.319Z,0.72
2024-01-15T18:57:02.410Z,0.68
2024-01-15T19:02:05.574Z,0.73
2024-01-15T19:07:08.684Z,0.76
2024-01-15T19:12:11.689Z,0.76
2024-01-15T19:17:14.958Z,0.71
2024-01-15T19:22:21.888Z,0.71
2024-01-15T19:27:24.970Z,0.73
2024-01-15T19:32:28.061Z,0.76
2024-01-15T19:37:31.059Z,0.77
2024-01-15T19:42:34.143Z,0.77
2024-01-15T19:47:37.204Z,0.77
2024-01-15T19:52:41.131Z,0.78
2024-01-15T19:57:44.132Z,0.88
2024-01-15T20:02:47.127Z,0.91
2024-01-15T20:07:50.153Z,0.88
2024-01-15T20:12:53.142Z,0.86
2024-01-15T20:17:56.640Z,0.87
2024-01-15T20:22:59.725Z,0.92
2024-01-15T20:28:02.822Z,0.94
2024-01-15T20:33:07.348Z,0.90
2024-01-15T20:38:10.547Z,0.90
2024-01-15T20:43:13.568Z,0.93
2024-01-15T20:48:16.670Z,0.95
2024-01-15T20:53:19.935Z,0.93
2024-01-15T20:58:26.095Z,0.86
2024-01-15T21:03:29.543Z,0.73
2024-01-15T21:08:32.840Z,0.66
2024-01-15T21:13:36.015Z,0.60
2024-01-15T21:18:39.881Z,0.46
2024-01-15T21:23:42.998Z,0.37
2024-01-15T21:28:46.172Z,0.34
2024-01-15T21:33:49.622Z,0.29
2024-01-15T21:38:52.755Z,0.24
2024-01-15T21:43:57.358Z,0.25
2024-01-15T21:49:00.374Z,0.30
2024-01-15T21:54:03.446Z,0.33
2024-01-15T21:59:06.543Z,0.33
2024-01-15T22:04:09.561Z,0.26
2024-01-15T22:09:12.553Z,0.26
2024-01-15T22:14:15.519Z,0.25
2024-01-15T22:19:18.609Z,0.19
2024-01-15T22:24:21.603Z,0.12
2024-01-15T22:29:24.624Z,0.07
2024-01-15T22:34:27.727Z,0.06
2024-01-15T22:39:30.745Z,0.09
2024-01-15T22:44:33.859Z,0.06
2024-01-15T22:49:36.872Z,-0.03
2024-01-15T22:54:39.812Z,-0.17
2024-01-15T22:59:43.323Z,-0.29
2024-01-15T23:04:47.452Z,-0.39
2024-01-15T23:09:51.190Z,-0.45
2024-01-15T23:14:54.303Z,-0.53
2024-01-15T23:19:57.460Z,-0.62
2024-01-15T23:25:00.797Z,-0.60
2024-01-15T23:30:05.378Z,-0.61
2024-01-15T23:35:08.762Z,-0.64
2024-01-15T23:40:13.544Z,-0.71
2024-01-15T23:45:16.608Z,-0.81
2024-01-15T23:50:19.606Z,-0.88
2024-01-15T23:55:22.585Z,-0.92
